Time;durP1;ratioP1;P1;durP2;ratioP2;P2;SDS_P1;SDS_P2;PMS_P1;PMS_P2;Temp;Humidity;BMP_temperature;BMP_pressure;BME280_temperature;BME280_humidity;BME280_pressure;Samples;Min_cycle;Max_cycle;Signal;HPM_P1;HPM_P2
2021/12/28 00:01:49;;;;;;;0.30;0.20;;;;;;;7.08;100.00;98634.84;5012343;28;20819;-54
2021/12/28 00:04:16;;;;;;;0.30;0.20;;;;;;;7.13;100.00;98633.75;5011967;28;20530;-54
2021/12/28 00:06:43;;;;;;;0.20;0.20;;;;;;;7.12;100.00;98631.16;5012259;28;20452;-54
2021/12/28 00:09:09;;;;;;;0.30;0.30;;;;;;;7.14;100.00;98626.69;5012227;28;20515;-54
2021/12/28 00:11:36;;;;;;;0.30;0.20;;;;;;;7.18;100.00;98625.63;5012070;28;20522;-54
2021/12/28 00:14:04;;;;;;;0.30;0.30;;;;;;;7.10;100.00;98615.34;5012425;28;20518;-54
2021/12/28 00:19:16;;;;;;;0.97;0.97;;;;;;;7.13;100.00;98614.41;5009395;28;20531;-55
2021/12/28 00:21:43;;;;;;;0.20;0.20;;;;;;;7.16;100.00;98616.03;5012278;28;20464;-54
2021/12/28 00:24:09;;;;;;;0.20;0.20;;;;;;;7.09;100.00;98618.94;5012381;28;20518;-54
2021/12/28 00:26:36;;;;;;;0.20;0.17;;;;;;;7.06;100.00;98602.34;5011988;28;20461;-54
2021/12/28 00:29:03;;;;;;;0.23;0.20;;;;;;;7.22;100.00;98615.78;5012048;28;20977;-54
2021/12/28 00:31:29;;;;;;;0.30;0.20;;;;;;;7.20;100.00;98615.84;5011801;28;20938;-54
2021/12/28 00:33:58;;;;;;;5.40;4.90;;;;;;;7.13;100.00;98615.25;5012399;28;20444;-54
2021/12/28 00:36:25;;;;;;;0.20;0.20;;;;;;;7.16;100.00;98600.19;5011943;28;20452;-54
2021/12/28 00:38:52;;;;;;;0.43;0.43;;;;;;;7.21;100.00;98601.72;5013173;28;20455;-54
2021/12/28 00:41:20;;;;;;;0.30;0.20;;;;;;;7.17;100.00;98608.06;5015467;28;20884;-54
2021/12/28 00:43:47;;;;;;;0.30;0.30;;;;;;;7.10;100.00;98606.56;5015635;28;20487;-55
2021/12/28 00:46:13;;;;;;;0.20;0.20;;;;;;;7.11;100.00;98597.72;5015415;28;20456;-54
2021/12/28 00:48:40;;;;;;;0.70;0.70;;;;;;;7.17;100.00;98586.06;5015576;28;20543;-54
2021/12/28 00:51:07;;;;;;;1.40;1.30;;;;;;;7.10;100.00;98582.81;5015690;28;20456;-54
2021/12/28 00:53:34;;;;;;;0.40;0.40;;;;;;;7.15;100.00;98579.97;5015645;28;20456;-54
2021/12/28 00:56:01;;;;;;;0.30;0.20;;;;;;;7.27;100.00;98582.97;5015430;28;20456;-54
2021/12/28 00:58:28;;;;;;;0.20;0.20;;;;;;;7.39;100.00;98579.78;5015497;28;20468;-54
2021/12/28 01:00:55;;;;;;;0.30;0.20;;;;;;;7.61;100.00;98581.50;5015506;28;20546;-54
2021/12/28 01:03:22;;;;;;;0.20;0.20;;;;;;;7.83;100.00;98573.47;5015165;28;20463;-54
2021/12/28 01:05:49;;;;;;;0.20;0.20;;;;;;;8.05;100.00;98574.19;5015171;28;20527;-54
2021/12/28 01:08:16;;;;;;;0.30;0.20;;;;;;;8.25;100.00;98578.56;5015452;28;20472;-55
2021/12/28 01:10:50;;;;;;;0.20;0.20;;;;;;;8.34;100.00;98572.88;5015155;28;20491;-54
2021/12/28 01:13:18;;;;;;;0.20;0.20;;;;;;;8.56;100.00;98562.97;5015409;28;20507;-54
2021/12/28 01:15:46;;;;;;;0.20;0.20;;;;;;;8.71;100.00;98577.25;5015231;28;20507;-54
2021/12/28 01:18:13;;;;;;;0.30;0.20;;;;;;;8.73;100.00;98574.53;5015244;28;20556;-54
2021/12/28 01:20:41;;;;;;;0.30;0.20;;;;;;;8.91;100.00;98573.66;5014837;28;20484;-54
2021/12/28 01:23:08;;;;;;;0.30;0.20;;;;;;;8.98;100.00;98563.59;5014756;28;20539;-55
2021/12/28 01:25:35;;;;;;;0.30;0.20;;;;;;;8.98;100.00;98568.91;5014772;28;20452;-54
2021/12/28 01:28:03;;;;;;;0.30;0.20;;;;;;;8.96;100.00;98570.75;5015087;28;20480;-54
2021/12/28 01:30:31;;;;;;;0.30;0.20;;;;;;;9.09;100.00;98570.06;5014114;28;20487;-55
2021/12/28 01:32:59;;;;;;;0.30;0.20;;;;;;;9.06;100.00;98564.09;5014851;28;20515;-54
2021/12/28 01:35:28;;;;;;;0.30;0.20;;;;;;;9.13;100.00;98562.81;5014355;28;20460;-52
2021/12/28 01:37:56;;;;;;;2.97;2.40;;;;;;;9.15;100.00;98547.69;5014651;28;20472;-52
2021/12/28 01:40:26;;;;;;;0.30;0.20;;;;;;;9.37;100.00;98553.63;5014368;28;20486;-52
2021/12/28 01:43:15;;;;;;;0.30;0.20;;;;;;;9.32;100.00;98550.38;5013503;28;20453;-52
2021/12/28 01:46:02;;;;;;;0.30;0.20;;;;;;;9.38;100.00;98551.81;5014628;28;20449;-52
2021/12/28 01:48:36;;;;;;;0.30;0.20;;;;;;;9.40;100.00;98553.44;5003754;28;20638;-53
2021/12/28 01:51:23;;;;;;;0.30;0.20;;;;;;;9.35;100.00;98552.00;5013666;28;20517;-52
2021/12/28 01:53:53;;;;;;;0.30;0.20;;;;;;;9.40;100.00;98560.56;5014347;28;20491;-54
2021/12/28 01:56:26;;;;;;;0.30;0.20;;;;;;;9.49;100.00;98553.00;5014578;28;20441;-54
2021/12/28 01:58:53;;;;;;;0.30;0.20;;;;;;;9.67;100.00;98547.66;5014040;28;20465;-58
2021/12/28 02:01:22;;;;;;;0.30;0.20;;;;;;;9.57;100.00;98543.75;5005234;28;20524;-54
2021/12/28 02:03:49;;;;;;;0.30;0.20;;;;;;;9.63;100.00;98551.41;5014024;28;20466;-55
2021/12/28 02:06:17;;;;;;;0.30;0.20;;;;;;;9.58;100.00;98538.38;5014130;28;20448;-55
2021/12/28 02:08:44;;;;;;;0.30;0.20;;;;;;;9.62;100.00;98542.59;5013790;28;20476;-55
2021/12/28 02:11:12;;;;;;;0.30;0.20;;;;;;;9.79;100.00;98539.88;5013764;28;20424;-54
2021/12/28 02:13:40;;;;;;;0.50;0.50;;;;;;;9.69;100.00;98535.16;5013912;28;20518;-54
2021/12/28 02:16:11;;;;;;;0.30;0.20;;;;;;;9.67;100.00;98526.41;5013769;28;20905;-54
2021/12/28 02:18:38;;;;;;;0.30;0.20;;;;;;;9.68;100.00;98518.38;5013697;28;20442;-54
2021/12/28 02:21:07;;;;;;;0.40;0.40;;;;;;;9.64;100.00;98503.56;5013536;28;20931;-54
2021/12/28 02:23:35;;;;;;;0.30;0.20;;;;;;;9.64;100.00;98508.88;5013497;28;20460;-54
2021/12/28 02:26:03;;;;;;;0.30;0.20;;;;;;;9.76;100.00;98499.41;5013674;28;20457;-54
2021/12/28 02:28:30;;;;;;;0.50;0.50;;;;;;;9.64;100.00;98495.63;5013536;28;20504;-54
2021/12/28 02:30:58;;;;;;;0.30;0.20;;;;;;;9.70;100.00;98497.06;5013561;28;20456;-54
2021/12/28 02:33:26;;;;;;;0.40;0.40;;;;;;;9.68;100.00;98481.25;5013710;28;20449;-55
2021/12/28 02:35:57;;;;;;;0.30;0.20;;;;;;;9.65;100.00;98481.41;5013315;28;21016;-54
2021/12/28 02:38:24;;;;;;;0.30;0.20;;;;;;;9.56;100.00;98471.28;5013319;28;20472;-54
2021/12/28 02:40:51;;;;;;;0.30;0.20;;;;;;;9.61;100.00;98481.66;5013268;28;20515;-55
2021/12/28 02:43:19;;;;;;;0.30;0.20;;;;;;;9.57;100.00;98480.94;5013124;28;20488;-54
2021/12/28 02:45:53;;;;;;;0.30;0.20;;;;;;;9.57;100.00;98469.50;5013714;28;20507;-54
2021/12/28 02:48:21;;;;;;;0.30;0.20;;;;;;;9.50;100.00;98468.97;5013617;28;20905;-54
2021/12/28 02:50:52;;;;;;;0.30;0.20;;;;;;;9.27;100.00;98467.53;5013138;28;20460;-54
2021/12/28 02:53:19;;;;;;;0.30;0.20;;;;;;;9.18;100.00;98457.41;5013655;28;20895;-54
2021/12/28 02:55:46;;;;;;;0.30;0.20;;;;;;;9.12;100.00;98457.75;5013533;28;20862;-54
2021/12/28 02:58:24;;;;;;;0.30;0.20;;;;;;;9.13;100.00;98447.06;5013344;28;20472;-54
2021/12/28 03:00:59;;;;;;;0.30;0.20;;;;;;;9.20;100.00;98448.47;5013014;28;20459;-54
2021/12/28 03:03:29;;;;;;;0.30;0.20;;;;;;;9.27;100.00;98441.03;5012921;28;20460;-54
2021/12/28 03:05:57;;;;;;;0.30;0.20;;;;;;;9.23;100.00;98433.31;5013272;28;20502;-54
2021/12/28 03:08:26;;;;;;;0.30;0.20;;;;;;;9.29;100.00;98430.34;5012729;28;20952;-55
2021/12/28 03:10:55;;;;;;;0.30;0.20;;;;;;;9.33;100.00;98426.59;5012766;28;20428;-54
2021/12/28 03:13:27;;;;;;;0.30;0.20;;;;;;;9.38;100.00;98436.00;5012817;28;20453;-54
2021/12/28 03:15:54;;;;;;;0.30;0.20;;;;;;;9.38;100.00;98425.41;5013142;28;20495;-55
2021/12/28 03:18:22;;;;;;;0.30;0.20;;;;;;;9.37;100.00;98421.03;5012792;28;20447;-54
2021/12/28 03:20:49;;;;;;;0.30;0.20;;;;;;;9.40;100.00;98420.00;5012851;28;20458;-54
2021/12/28 03:23:18;;;;;;;0.30;0.20;;;;;;;9.41;100.00;98422.56;5012607;28;20460;-55
2021/12/28 03:25:45;;;;;;;0.30;0.30;;;;;;;9.38;100.00;98406.00;5012925;28;20495;-54
2021/12/28 03:28:29;;;;;;;0.30;0.20;;;;;;;9.30;100.00;98402.88;5012605;28;20519;-55
2021/12/28 03:31:02;;;;;;;0.40;0.37;;;;;;;9.17;100.00;98406.19;5012517;28;20457;-55
2021/12/28 03:33:33;;;;;;;0.30;0.20;;;;;;;9.25;100.00;98399.63;5012643;28;20449;-54
2021/12/28 03:36:00;;;;;;;0.30;0.20;;;;;;;9.13;100.00;98401.13;5012626;28;20970;-54
2021/12/28 03:38:27;;;;;;;0.30;0.20;;;;;;;9.18;100.00;98396.44;4999785;28;20476;-54
2021/12/28 03:40:54;;;;;;;0.30;0.20;;;;;;;9.16;100.00;98393.88;5012295;28;21037;-54
2021/12/28 03:43:21;;;;;;;0.30;0.20;;;;;;;9.08;100.00;98388.13;5012566;28;21268;-54
2021/12/28 03:45:49;;;;;;;0.30;0.20;;;;;;;8.96;100.00;98385.28;5012771;28;20522;-54
2021/12/28 03:48:17;;;;;;;0.30;0.20;;;;;;;8.93;100.00;98381.00;5012638;28;20473;-54
2021/12/28 03:50:44;;;;;;;0.30;0.20;;;;;;;8.99;100.00;98383.31;5012339;28;20461;-54
2021/12/28 03:53:11;;;;;;;0.30;0.20;;;;;;;9.08;100.00;98384.63;5012604;28;20455;-54
2021/12/28 03:55:38;;;;;;;0.30;0.20;;;;;;;9.14;100.00;98390.44;5012377;28;20996;-54
2021/12/28 03:58:05;;;;;;;0.30;0.20;;;;;;;9.19;100.00;98385.78;5012126;28;20851;-54
2021/12/28 04:00:36;;;;;;;0.30;0.20;;;;;;;9.18;100.00;98385.84;5012024;28;21013;-54
2021/12/28 04:03:03;;;;;;;0.30;0.20;;;;;;;9.28;100.00;98386.22;5012570;28;20456;-54
2021/12/28 04:05:30;;;;;;;0.30;0.20;;;;;;;9.27;100.00;98382.69;5012127;28;20459;-54
2021/12/28 04:07:57;;;;;;;0.30;0.20;;;;;;;9.29;100.00;98380.81;5012415;28;20848;-54
2021/12/28 04:10:31;;;;;;;0.30;0.20;;;;;;;9.11;100.00;98382.66;5012099;28;20448;-54
2021/12/28 04:12:58;;;;;;;0.30;0.20;;;;;;;8.98;100.00;98373.66;5012593;28;20472;-54
2021/12/28 04:15:25;;;;;;;0.30;0.20;;;;;;;8.81;100.00;98377.19;5014748;28;20453;-54
2021/12/28 04:17:51;;;;;;;0.30;0.20;;;;;;;8.87;100.00;98373.38;5016166;28;21029;-54
2021/12/28 04:20:21;;;;;;;0.60;0.60;;;;;;;8.76;100.00;98370.41;5015793;28;20484;-54
2021/12/28 04:22:47;;;;;;;0.30;0.20;;;;;;;8.74;100.00;98373.16;5015889;28;20472;-54
2021/12/28 04:25:16;;;;;;;0.30;0.20;;;;;;;8.78;100.00;98377.38;5015974;28;20459;-54
2021/12/28 04:27:44;;;;;;;0.30;0.20;;;;;;;8.80;100.00;98369.34;5015813;28;20515;-54
2021/12/28 04:30:13;;;;;;;0.30;0.20;;;;;;;8.73;100.00;98367.94;5016079;28;20502;-54
2021/12/28 04:32:39;;;;;;;0.30;0.20;;;;;;;8.64;100.00;98368.44;5016129;28;20453;-54
2021/12/28 04:35:07;;;;;;;0.30;0.20;;;;;;;8.63;100.00;98366.69;5015577;28;20510;-54
2021/12/28 04:37:35;;;;;;;0.30;0.20;;;;;;;8.60;100.00;98363.25;5015812;28;20452;-54
2021/12/28 04:40:03;;;;;;;0.30;0.20;;;;;;;8.53;100.00;98366.31;5015781;28;20480;-54
2021/12/28 04:42:31;;;;;;;0.30;0.20;;;;;;;8.59;100.00;98356.25;5016028;28;20529;-54
2021/12/28 04:44:58;;;;;;;0.30;0.20;;;;;;;8.55;100.00;98359.16;5015495;28;21010;-54
2021/12/28 04:47:25;;;;;;;0.30;0.20;;;;;;;8.55;100.00;98348.56;5015779;28;20535;-55
2021/12/28 04:49:52;;;;;;;0.30;0.20;;;;;;;8.59;100.00;98345.66;5015261;28;20472;-54
2021/12/28 04:52:18;;;;;;;0.30;0.20;;;;;;;8.61;100.00;98346.44;5015651;28;20527;-54
2021/12/28 04:54:45;;;;;;;0.30;0.20;;;;;;;8.79;100.00;98354.38;5015224;28;20457;-55
2021/12/28 04:57:12;;;;;;;2.23;2.13;;;;;;;8.92;100.00;98355.44;5015555;28;20498;-55
2021/12/28 04:59:38;;;;;;;0.87;0.87;;;;;;;9.04;100.00;98349.47;5015560;28;20472;-54
2021/12/28 05:02:05;;;;;;;0.30;0.20;;;;;;;9.10;100.00;98359.75;5015288;28;20517;-54
2021/12/28 05:04:32;;;;;;;0.30;0.20;;;;;;;9.05;100.00;98353.84;5015246;28;20460;-54
2021/12/28 05:06:58;;;;;;;0.30;0.30;;;;;;;9.17;100.00;98350.53;5015534;28;20982;-54
2021/12/28 05:09:25;;;;;;;0.30;0.20;;;;;;;9.26;100.00;98343.03;5015545;28;20468;-54
2021/12/28 05:11:52;;;;;;;0.30;0.20;;;;;;;9.30;100.00;98334.81;5016004;28;21019;-59
2021/12/28 05:14:20;;;;;;;0.30;0.20;;;;;;;9.24;100.00;98324.56;5016035;28;20839;-58
2021/12/28 05:16:47;;;;;;;0.30;0.20;;;;;;;9.40;100.00;98317.47;5015826;28;20534;-59
2021/12/28 05:19:15;;;;;;;0.30;0.20;;;;;;;9.42;100.00;98315.56;5016088;28;20839;-59
2021/12/28 05:21:43;;;;;;;0.40;0.30;;;;;;;9.62;100.00;98314.47;5015967;28;20517;-59
2021/12/28 05:24:09;;;;;;;0.30;0.20;;;;;;;9.47;100.00;98318.84;5015783;28;20798;-58
2021/12/28 05:26:36;;;;;;;0.30;0.20;;;;;;;9.24;100.00;98315.75;5013454;28;20874;-59
2021/12/28 05:29:03;;;;;;;0.30;0.20;;;;;;;9.17;100.00;98312.56;5016143;28;20472;-59
2021/12/28 05:31:30;;;;;;;0.30;0.20;;;;;;;8.96;100.00;98311.09;5016095;28;20453;-58
2021/12/28 05:33:58;;;;;;;0.30;0.20;;;;;;;9.05;100.00;98310.59;5015336;28;20459;-58
2021/12/28 05:36:25;;;;;;;0.30;0.20;;;;;;;8.98;100.00;98309.22;5016274;28;20941;-58
2021/12/28 05:38:52;;;;;;;0.30;0.20;;;;;;;9.06;100.00;98304.38;5015508;28;20543;-58
2021/12/28 05:41:20;;;;;;;0.30;0.20;;;;;;;9.10;100.00;98308.56;5015732;28;20515;-58
2021/12/28 05:43:46;;;;;;;0.30;0.20;;;;;;;9.09;100.00;98307.69;5015975;28;20503;-58
2021/12/28 05:46:13;;;;;;;0.30;0.20;;;;;;;9.05;100.00;98297.34;5016240;28;20448;-58
2021/12/28 05:48:40;;;;;;;1.80;1.80;;;;;;;9.01;100.00;98299.28;5015883;28;20454;-58
2021/12/28 05:51:06;;;;;;;0.30;0.20;;;;;;;9.06;100.00;98294.63;5015897;28;20448;-58
2021/12/28 05:53:33;;;;;;;0.30;0.20;;;;;;;9.11;100.00;98295.22;5015835;28;20449;-58
2021/12/28 05:56:00;;;;;;;0.30;0.20;;;;;;;9.10;100.00;98297.94;5015686;28;20449;-59
2021/12/28 05:58:27;;;;;;;0.30;0.20;;;;;;;9.08;100.00;98294.53;5015246;28;20497;-59
2021/12/28 06:00:53;;;;;;;0.30;0.20;;;;;;;8.97;100.00;98292.47;5015011;28;20492;-58
2021/12/28 06:03:20;;;;;;;0.30;0.20;;;;;;;8.93;100.00;98292.72;5014578;28;20929;-58
2021/12/28 06:05:47;;;;;;;0.30;0.20;;;;;;;8.97;100.00;98294.25;5014416;28;20457;-58
2021/12/28 06:08:14;;;;;;;0.30;0.20;;;;;;;8.84;100.00;98291.41;5014061;28;20483;-59
2021/12/28 06:10:57;;;;;;;0.30;0.20;;;;;;;8.66;100.00;98287.97;5001514;28;20449;-58
2021/12/28 06:13:23;;;;;;;0.30;0.20;;;;;;;8.78;100.00;98278.50;5014036;28;20449;-58
2021/12/28 06:15:50;;;;;;;0.30;0.20;;;;;;;8.65;100.00;98283.59;5014005;28;20452;-58
2021/12/28 06:18:17;;;;;;;0.30;0.20;;;;;;;8.70;100.00;98286.84;5013992;28;20477;-59
2021/12/28 06:20:44;;;;;;;0.70;0.70;;;;;;;8.71;100.00;98280.59;5014244;28;20492;-58
2021/12/28 06:23:11;;;;;;;0.30;0.20;;;;;;;8.65;100.00;98274.81;5014163;28;20456;-58
2021/12/28 06:25:39;;;;;;;0.30;0.20;;;;;;;8.60;100.00;98278.53;5013874;28;20453;-58
2021/12/28 06:28:06;;;;;;;0.40;0.37;;;;;;;8.58;100.00;98261.88;5013734;28;20472;-58
2021/12/28 06:30:34;;;;;;;0.30;0.30;;;;;;;8.55;100.00;98259.38;5013623;28;20452;-59
2021/12/28 06:33:01;;;;;;;0.30;0.20;;;;;;;8.50;100.00;98257.94;5013809;28;20502;-59
2021/12/28 06:35:27;;;;;;;0.30;0.20;;;;;;;8.51;100.00;98251.69;5013827;28;20510;-58
2021/12/28 06:37:54;;;;;;;0.30;0.20;;;;;;;8.56;100.00;98254.94;5013392;28;20481;-58
2021/12/28 06:40:21;;;;;;;0.30;0.20;;;;;;;8.63;100.00;98258.09;5012297;28;20456;-58
2021/12/28 06:42:48;;;;;;;0.30;0.20;;;;;;;8.50;100.00;98256.16;5013637;28;20488;-58
2021/12/28 06:45:15;;;;;;;0.30;0.20;;;;;;;8.51;100.00;98255.19;5013442;28;20507;-58
2021/12/28 06:47:42;;;;;;;0.30;0.20;;;;;;;8.46;100.00;98251.06;5013728;28;20448;-59
2021/12/28 06:50:09;;;;;;;0.30;0.20;;;;;;;8.48;100.00;98246.53;5013402;28;20854;-58
2021/12/28 06:52:36;;;;;;;0.30;0.20;;;;;;;8.47;100.00;98247.47;5013391;28;20448;-59
2021/12/28 06:55:05;;;;;;;0.30;0.20;;;;;;;8.41;100.00;98245.16;5013356;28;20514;-58
2021/12/28 06:57:31;;;;;;;0.30;0.20;;;;;;;8.39;100.00;98258.50;5013542;28;20899;-57
2021/12/28 06:59:58;;;;;;;0.30;0.20;;;;;;;8.39;100.00;98255.84;5013026;28;20942;-58
2021/12/28 07:02:25;;;;;;;0.30;0.20;;;;;;;8.42;100.00;98250.38;5011627;28;20546;-57
2021/12/28 07:04:52;;;;;;;0.30;0.20;;;;;;;8.46;100.00;98256.38;5012682;28;20449;-58
2021/12/28 07:07:19;;;;;;;0.30;0.20;;;;;;;8.56;100.00;98254.94;5012125;28;20507;-59
2021/12/28 07:09:45;;;;;;;0.30;0.20;;;;;;;8.55;100.00;98256.75;5011625;28;20493;-58
2021/12/28 07:12:12;;;;;;;0.30;0.20;;;;;;;8.58;100.00;98255.72;5012464;28;20516;-57
2021/12/28 07:14:39;;;;;;;0.30;0.20;;;;;;;8.49;100.00;98249.09;5012965;28;20449;-58
2021/12/28 07:17:06;;;;;;;0.30;0.20;;;;;;;8.52;100.00;98253.41;5011600;28;20567;-58
2021/12/28 07:19:32;;;;;;;0.30;0.20;;;;;;;8.44;100.00;98253.81;5011514;28;20472;-57
2021/12/28 07:22:00;;;;;;;0.30;0.20;;;;;;;8.50;100.00;98257.94;5010398;28;20559;-59
2021/12/28 07:24:26;;;;;;;0.30;0.20;;;;;;;8.37;100.00;98249.78;5012725;28;20498;-58
2021/12/28 07:26:53;;;;;;;0.30;0.20;;;;;;;8.33;100.00;98249.03;5012894;28;20456;-57
2021/12/28 07:29:20;;;;;;;0.30;0.20;;;;;;;8.31;100.00;98235.03;5012760;28;20471;-58
2021/12/28 07:31:48;;;;;;;0.30;0.20;;;;;;;8.33;100.00;98248.19;5012748;28;20485;-58
2021/12/28 07:34:16;;;;;;;0.30;0.20;;;;;;;8.37;100.00;98248.94;5012611;28;20946;-58
2021/12/28 07:36:43;;;;;;;0.30;0.20;;;;;;;8.35;100.00;98248.97;5012790;28;20452;-58
2021/12/28 07:39:10;;;;;;;0.30;0.20;;;;;;;8.54;100.00;98262.13;5012722;28;20468;-58
2021/12/28 07:41:37;;;;;;;0.30;0.20;;;;;;;8.53;100.00;98265.72;5012652;28;20535;-58
2021/12/28 07:44:04;;;;;;;0.30;0.20;;;;;;;8.48;100.00;98265.06;5005127;28;20519;-58
2021/12/28 07:46:31;;;;;;;0.30;0.20;;;;;;;8.47;100.00;98266.88;5011359;28;20441;-59
2021/12/28 07:48:58;;;;;;;0.30;0.20;;;;;;;8.52;100.00;98259.56;5011376;28;20978;-58
2021/12/28 07:51:24;;;;;;;0.30;0.20;;;;;;;8.56;100.00;98265.53;5012529;28;20441;-59
2021/12/28 07:53:51;;;;;;;0.30;0.20;;;;;;;8.60;100.00;98253.84;5012385;28;20499;-59
2021/12/28 07:56:18;;;;;;;0.30;0.20;;;;;;;8.57;100.00;98257.50;5012554;28;20457;-58
2021/12/28 07:58:45;;;;;;;1.03;1.03;;;;;;;8.57;100.00;98256.66;5012355;28;20535;-58
2021/12/28 08:01:12;;;;;;;0.30;0.20;;;;;;;8.53;100.00;98261.25;5011329;28;20492;-58
2021/12/28 08:03:39;;;;;;;0.30;0.20;;;;;;;8.64;100.00;98270.44;5010757;28;21004;-58
2021/12/28 08:06:05;;;;;;;0.30;0.20;;;;;;;8.58;100.00;98268.97;4999512;28;20448;-58
2021/12/28 08:08:32;;;;;;;0.30;0.20;;;;;;;8.54;100.00;98268.28;5012410;28;20496;-58
2021/12/28 08:10:59;;;;;;;0.97;0.97;;;;;;;8.47;100.00;98269.50;5012356;28;20449;-58
2021/12/28 08:13:26;;;;;;;0.30;0.20;;;;;;;8.46;100.00;98266.94;5012273;28;20449;-58
2021/12/28 08:15:52;;;;;;;0.30;0.20;;;;;;;8.51;100.00;98259.66;5012125;28;20510;-58
2021/12/28 08:18:19;;;;;;;0.30;0.20;;;;;;;8.58;100.00;98271.59;5012374;28;20453;-58
2021/12/28 08:20:46;;;;;;;0.30;0.20;;;;;;;8.57;100.00;98267.25;5012243;28;20484;-59
2021/12/28 08:23:13;;;;;;;0.30;0.20;;;;;;;8.66;100.00;98264.13;5012013;28;20570;-58
2021/12/28 08:25:40;;;;;;;0.30;0.20;;;;;;;8.64;100.00;98268.66;5012344;28;20487;-59
2021/12/28 08:28:07;;;;;;;0.30;0.20;;;;;;;8.69;100.00;98265.75;5009768;28;20491;-57
2021/12/28 08:30:36;;;;;;;0.30;0.20;;;;;;;8.71;100.00;98262.06;5000322;28;20456;-58
2021/12/28 08:33:05;;;;;;;0.30;0.20;;;;;;;8.68;100.00;98256.09;5012142;28;20487;-58
2021/12/28 08:35:32;;;;;;;0.30;0.20;;;;;;;8.70;100.00;98260.34;5012278;28;20487;-58
2021/12/28 08:37:59;;;;;;;0.30;0.20;;;;;;;8.80;100.00;98263.38;5011909;28;20469;-58
2021/12/28 08:40:26;;;;;;;0.30;0.20;;;;;;;8.76;100.00;98262.66;5012001;28;20419;-58
2021/12/28 08:42:53;;;;;;;0.30;0.20;;;;;;;8.80;100.00;98264.22;5012193;28;20481;-58
2021/12/28 08:45:19;;;;;;;0.30;0.20;;;;;;;8.81;100.00;98273.03;5011885;28;20449;-58
2021/12/28 08:47:48;;;;;;;0.30;0.20;;;;;;;8.88;100.00;98283.19;5010771;28;20786;-58
2021/12/28 08:50:16;;;;;;;0.30;0.20;;;;;;;8.95;100.00;98288.19;5011868;28;20441;-57
2021/12/28 08:52:43;;;;;;;0.30;0.20;;;;;;;9.06;100.00;98291.97;5011998;28;20462;-58
2021/12/28 08:55:17;;;;;;;0.30;0.20;;;;;;;9.03;100.00;98297.41;5011735;28;20493;-58
2021/12/28 08:57:44;;;;;;;0.30;0.20;;;;;;;9.13;100.00;98301.28;5011668;28;20487;-58
2021/12/28 09:00:15;;;;;;;0.30;0.20;;;;;;;9.14;100.00;98292.38;5013394;28;20507;-58
2021/12/28 09:02:41;;;;;;;0.30;0.20;;;;;;;9.15;100.00;98290.59;5014689;28;20848;-56
2021/12/28 09:05:09;;;;;;;0.30;0.20;;;;;;;9.23;100.00;98292.84;5014806;28;20444;-56
2021/12/28 09:07:36;;;;;;;0.30;0.23;;;;;;;9.14;100.00;98289.72;5014330;28;20452;-56
2021/12/28 09:10:04;;;;;;;0.30;0.20;;;;;;;9.10;100.00;98285.56;5014607;28;20445;-56
2021/12/28 09:12:31;;;;;;;0.30;0.20;;;;;;;9.15;100.00;98293.25;5014490;28;20423;-57
2021/12/28 09:14:58;;;;;;;0.30;0.20;;;;;;;9.13;100.00;98288.03;5014673;28;20484;-57
2021/12/28 09:17:25;;;;;;;0.30;0.20;;;;;;;9.14;100.00;98297.69;5014477;28;20572;-56
2021/12/28 09:19:51;;;;;;;0.30;0.20;;;;;;;9.16;100.00;98303.75;5014411;28;20464;-56
2021/12/28 09:22:18;;;;;;;0.30;0.20;;;;;;;9.17;100.00;98308.09;5013783;28;20524;-56
2021/12/28 09:24:45;;;;;;;0.30;0.20;;;;;;;9.25;100.00;98314.81;5013303;28;20479;-56
2021/12/28 09:27:16;;;;;;;0.30;0.20;;;;;;;9.35;100.00;98316.00;5009195;28;20453;-56
2021/12/28 09:29:43;;;;;;;0.30;0.20;;;;;;;9.45;100.00;98320.69;5012923;28;20488;-56
2021/12/28 09:32:16;;;;;;;0.30;0.20;;;;;;;9.44;100.00;98323.44;5013003;28;20479;-57
2021/12/28 09:34:44;;;;;;;0.30;0.20;;;;;;;9.49;100.00;98329.34;5013828;28;20457;-56
2021/12/28 09:37:11;;;;;;;0.30;0.20;;;;;;;9.53;100.00;98328.25;5013264;28;20825;-57
2021/12/28 09:39:38;;;;;;;0.30;0.20;;;;;;;9.54;100.00;98334.41;5014085;28;20494;-59
2021/12/28 09:42:05;;;;;;;0.30;0.20;;;;;;;9.64;100.00;98325.84;5014312;28;20466;-57
2021/12/28 09:44:33;;;;;;;0.30;0.20;;;;;;;9.68;100.00;98327.38;5013685;28;20801;-57
2021/12/28 09:47:01;;;;;;;0.30;0.20;;;;;;;9.78;100.00;98328.56;5014354;28;20498;-57
2021/12/28 09:49:28;;;;;;;0.30;0.20;;;;;;;9.77;100.00;98326.00;5013514;28;20469;-58
2021/12/28 09:51:58;;;;;;;0.30;0.20;;;;;;;9.76;100.00;98330.47;5013811;28;20470;-57
2021/12/28 09:54:27;;;;;;;0.30;0.20;;;;;;;9.90;100.00;98342.94;5013652;28;20419;-58
2021/12/28 09:56:55;;;;;;;0.30;0.20;;;;;;;9.98;100.00;98334.53;5014130;28;20459;-57
2021/12/28 09:59:23;;;;;;;0.30;0.20;;;;;;;9.95;100.00;98326.75;5013575;28;20453;-57
2021/12/28 10:01:50;;;;;;;2.07;1.83;;;;;;;9.95;100.00;98329.41;5005832;28;20484;-58
2021/12/28 10:04:18;;;;;;;0.30;0.20;;;;;;;9.97;100.00;98331.00;5013431;28;20481;-58
2021/12/28 10:06:45;;;;;;;0.30;0.20;;;;;;;10.28;100.00;98326.59;5012388;28;20449;-58
2021/12/28 10:09:15;;;;;;;0.30;0.20;;;;;;;10.32;100.00;98331.66;5012957;28;20891;-57
2021/12/28 10:11:53;;;;;;;0.30;0.20;;;;;;;10.43;100.00;98331.03;5012957;28;20446;-57
2021/12/28 10:14:26;;;;;;;0.30;0.20;;;;;;;10.50;100.00;98321.72;5013800;28;20502;-58
2021/12/28 10:16:57;;;;;;;0.30;0.20;;;;;;;10.37;100.00;98324.25;5009011;28;20499;-57
2021/12/28 10:19:32;;;;;;;0.30;0.20;;;;;;;10.32;100.00;98329.00;5013656;28;20490;-58
2021/12/28 10:22:19;;;;;;;0.30;0.20;;;;;;;10.33;100.00;98321.88;5010062;28;20541;-58
2021/12/28 10:24:46;;;;;;;0.30;0.20;;;;;;;10.43;100.00;98320.41;5006624;28;20453;-58
2021/12/28 10:27:16;;;;;;;0.30;0.20;;;;;;;10.35;100.00;98318.19;5004409;28;20452;-58
2021/12/28 10:29:44;;;;;;;0.30;0.20;;;;;;;10.36;100.00;98309.28;5006093;28;20570;-58
2021/12/28 10:32:24;;;;;;;0.30;0.30;;;;;;;10.39;100.00;98316.19;5007241;28;20452;-57
2021/12/28 10:34:58;;;;;;;0.30;0.20;;;;;;;10.39;100.00;98314.41;5003845;28;20465;-58
2021/12/28 10:37:31;;;;;;;0.30;0.20;;;;;;;10.40;100.00;98307.28;5005218;28;20480;-58
2021/12/28 10:39:59;;;;;;;0.30;0.20;;;;;;;10.35;100.00;98314.69;5007759;28;20448;-58
2021/12/28 10:42:46;;;;;;;0.30;0.20;;;;;;;10.28;100.00;98314.22;5003125;28;20507;-57
2021/12/28 10:45:34;;;;;;;0.30;0.20;;;;;;;10.49;100.00;98314.72;5005474;28;20480;-58
2021/12/28 10:48:05;;;;;;;0.30;0.20;;;;;;;10.36;100.00;98311.06;5006432;28;20534;-58
2021/12/28 10:50:41;;;;;;;0.30;0.20;;;;;;;10.44;100.00;98305.31;5007240;28;21296;-58
2021/12/28 10:53:18;;;;;;;0.30;0.20;;;;;;;10.45;100.00;98304.38;5006918;28;20476;-58
2021/12/28 10:55:48;;;;;;;0.67;0.60;;;;;;;10.45;100.00;98299.06;5006786;28;20874;-58
2021/12/28 10:58:24;;;;;;;0.30;0.20;;;;;;;10.49;100.00;98297.91;5007318;28;20461;-58
2021/12/28 11:00:53;;;;;;;0.30;0.20;;;;;;;10.48;100.00;98301.53;5007269;28;20946;-58
2021/12/28 11:03:26;;;;;;;0.30;0.20;;;;;;;10.42;100.00;98300.09;5006903;28;20496;-58
2021/12/28 11:05:55;;;;;;;0.30;0.20;;;;;;;10.35;100.00;98291.63;5007378;28;20453;-58
2021/12/28 11:08:25;;;;;;;0.30;0.20;;;;;;;10.28;100.00;98285.00;5005829;28;20480;-58
2021/12/28 11:10:55;;;;;;;0.30;0.20;;;;;;;10.38;100.00;98277.31;5006489;28;20452;-58
2021/12/28 11:13:27;;;;;;;0.30;0.20;;;;;;;10.43;100.00;98271.75;5006792;28;21040;-59
2021/12/28 11:15:55;;;;;;;0.80;0.80;;;;;;;10.53;100.00;98271.06;5007570;28;20449;-58
2021/12/28 11:18:30;;;;;;;0.30;0.20;;;;;;;10.71;100.00;98269.09;5006656;28;20476;-58
2021/12/28 11:21:00;;;;;;;0.30;0.20;;;;;;;10.70;100.00;98263.88;5004045;28;20528;-58
2021/12/28 11:23:30;;;;;;;0.30;0.20;;;;;;;10.78;100.00;98258.94;5004917;28;20550;-60
2021/12/28 11:26:13;;;;;;;0.30;0.20;;;;;;;10.89;100.00;98254.66;5002385;28;20460;-58
2021/12/28 11:28:42;;;;;;;0.30;0.20;;;;;;;10.80;100.00;98241.94;5006540;28;20471;-58
2021/12/28 11:31:12;;;;;;;0.30;0.20;;;;;;;10.94;100.00;98251.72;5006674;28;20438;-59
2021/12/28 11:33:52;;;;;;;0.30;0.20;;;;;;;10.96;100.00;98244.50;5005669;28;20427;-59
2021/12/28 11:36:22;;;;;;;0.30;0.20;;;;;;;10.98;100.00;98239.97;5003674;28;20514;-59
2021/12/28 11:38:49;;;;;;;0.30;0.20;;;;;;;11.06;100.00;98231.47;5003002;28;20443;-59
2021/12/28 11:41:16;;;;;;;0.30;0.20;;;;;;;11.09;100.00;98236.59;5005729;28;21024;-59